Time;durP1;ratioP1;P1;durP2;ratioP2;P2;SDS_P1;SDS_P2;PMS_P1;PMS_P2;Temp;Humidity;BMP_temperature;BMP_pressure;BME280_temperature;BME280_humidity;BME280_pressure;Samples;Min_cycle;Max_cycle;Signal;HPM_P1;HPM_P2
2023/09/28 00:01:32;;;;;;;7.88;2.78;;;;;;;;;;5053513;28;20111;-88
2023/09/28 00:03:57;;;;;;;6.40;3.03;;;;;;;;;;5057360;28;20017;-88
2023/09/28 00:06:23;;;;;;;6.90;2.65;;;;;;;;;;5067632;28;20035;-88
2023/09/28 00:08:49;;;;;;;6.13;3.13;;;;;;;;;;5073923;28;20525;-89
2023/09/28 00:11:14;;;;;;;7.70;3.03;;;;;;;;;;5072947;28;20085;-88
2023/09/28 00:13:39;;;;;;;8.73;2.85;;;;;;;;;;5073927;28;20040;-88
2023/09/28 00:16:05;;;;;;;4.30;2.42;;;;;;;;;;5062108;28;20117;-88
2023/09/28 00:18:30;;;;;;;4.90;2.88;;;;;;;;;;5075557;28;20044;-88
2023/09/28 00:20:56;;;;;;;4.78;2.72;;;;;;;;;;5060915;28;20032;-88
2023/09/28 00:23:21;;;;;;;14.63;3.17;;;;;;;;;;5071697;28;20016;-88
2023/09/28 00:25:47;;;;;;;8.25;2.95;;;;;;;;;;5063401;28;20021;-88
2023/09/28 00:28:12;;;;;;;8.02;3.28;;;;;;;;;;5069506;28;20025;-87
2023/09/28 00:30:38;;;;;;;6.50;2.92;;;;;;;;;;5064071;28;20016;-89
2023/09/28 00:33:03;;;;;;;5.40;2.70;;;;;;;;;;5072508;28;20032;-88
2023/09/28 00:35:29;;;;;;;5.55;2.92;;;;;;;;;;5067641;28;20479;-89
2023/09/28 00:37:54;;;;;;;7.68;2.88;;;;;;;;;;5053608;28;20100;-88
2023/09/28 00:40:31;;;;;;;5.90;2.72;;;;;;;;;;5071817;28;20489;-88
2023/09/28 00:43:00;;;;;;;7.13;3.15;;;;;;;;;;5072135;28;20048;-88
2023/09/28 00:45:25;;;;;;;5.63;2.80;;;;;;;;;;5072960;28;20024;-88
2023/09/28 00:47:51;;;;;;;6.68;4.00;;;;;;;;;;5072699;28;20023;-88
2023/09/28 00:50:17;;;;;;;8.98;3.10;;;;;;;;;;5070031;28;20111;-88
2023/09/28 00:52:43;;;;;;;5.72;3.08;;;;;;;;;;5058308;28;20052;-88
2023/09/28 00:55:10;;;;;;;5.45;2.42;;;;;;;;;;5067456;28;20048;-88
2023/09/28 00:57:38;;;;;;;7.25;2.80;;;;;;;;;;5072595;28;20013;-88
2023/09/28 01:02:51;;;;;;;9.05;2.70;;;;;;;;;;5062121;28;20020;-88
2023/09/28 01:05:17;;;;;;;6.13;2.97;;;;;;;;;;5072240;28;20056;-88
2023/09/28 01:07:42;;;;;;;6.18;2.92;;;;;;;;;;5072527;28;20090;-88
2023/09/28 01:10:09;;;;;;;11.48;2.95;;;;;;;;;;5072739;28;20021;-88
2023/09/28 01:12:38;;;;;;;6.43;2.63;;;;;;;;;;5068930;28;20483;-88
2023/09/28 01:15:04;;;;;;;5.68;2.75;;;;;;;;;;5072513;28;20066;-88
2023/09/28 01:17:29;;;;;;;5.03;2.90;;;;;;;;;;5070971;28;20420;-88
2023/09/28 01:19:55;;;;;;;8.07;2.90;;;;;;;;;;5073235;28;20017;-88
2023/09/28 01:22:22;;;;;;;5.30;3.10;;;;;;;;;;5072599;28;20016;-88
2023/09/28 01:24:47;;;;;;;5.78;2.83;;;;;;;;;;5055588;28;20028;-88
2023/09/28 01:27:14;;;;;;;7.47;2.97;;;;;;;;;;5070904;28;20029;-88
2023/09/28 01:29:40;;;;;;;4.68;3.00;;;;;;;;;;5066661;28;20043;-88
2023/09/28 01:32:05;;;;;;;7.22;2.70;;;;;;;;;;5062894;28;20033;-88
2023/09/28 01:34:33;;;;;;;5.55;2.53;;;;;;;;;;5075664;28;20027;-88
2023/09/28 01:36:58;;;;;;;5.25;2.88;;;;;;;;;;5075819;28;20017;-88
2023/09/28 01:39:26;;;;;;;4.82;2.53;;;;;;;;;;5075834;28;20023;-88
2023/09/28 01:41:52;;;;;;;8.85;2.85;;;;;;;;;;5073957;28;20013;-88
2023/09/28 01:44:17;;;;;;;9.75;2.70;;;;;;;;;;5072829;28;20077;-88
2023/09/28 01:46:42;;;;;;;4.68;2.42;;;;;;;;;;5065570;28;20052;-88
2023/09/28 01:49:08;;;;;;;7.45;2.80;;;;;;;;;;5067700;28;20017;-88
2023/09/28 01:51:33;;;;;;;4.80;2.30;;;;;;;;;;5071617;28;20015;-88
2023/09/28 01:53:58;;;;;;;4.07;2.60;;;;;;;;;;5073658;28;20024;-88
2023/09/28 01:56:24;;;;;;;4.30;2.45;;;;;;;;;;5076415;28;20024;-88
2023/09/28 01:58:49;;;;;;;4.95;2.50;;;;;;;;;;5066583;28;20047;-88
2023/09/28 02:01:22;;;;;;;5.95;2.53;;;;;;;;;;5072238;28;20017;-88
2023/09/28 02:03:47;;;;;;;4.22;2.70;;;;;;;;;;5076160;28;20020;-87
2023/09/28 02:06:16;;;;;;;4.60;2.08;;;;;;;;;;5061599;28;20502;-87
2023/09/28 02:08:41;;;;;;;7.40;3.03;;;;;;;;;;5063276;28;20016;-87
2023/09/28 02:11:06;;;;;;;5.78;3.03;;;;;;;;;;5076084;28;20115;-87
2023/09/28 02:13:31;;;;;;;10.10;2.90;;;;;;;;;;5070689;28;20025;-87
2023/09/28 02:15:57;;;;;;;4.72;2.85;;;;;;;;;;5062426;28;20017;-87
2023/09/28 02:18:22;;;;;;;6.22;2.55;;;;;;;;;;5072594;28;20099;-87
2023/09/28 02:20:48;;;;;;;10.30;2.88;;;;;;;;;;5067168;28;20028;-88
2023/09/28 02:23:13;;;;;;;5.75;2.75;;;;;;;;;;5069438;28;20115;-87
2023/09/28 02:25:39;;;;;;;6.05;2.90;;;;;;;;;;5075593;28;20115;-87
2023/09/28 02:28:04;;;;;;;6.32;2.50;;;;;;;;;;5075700;28;20020;-87
2023/09/28 02:30:29;;;;;;;6.43;3.13;;;;;;;;;;5072643;28;20032;-86
2023/09/28 02:33:01;;;;;;;7.45;2.85;;;;;;;;;;5067386;28;20031;-87
2023/09/28 02:35:26;;;;;;;5.95;2.80;;;;;;;;;;5072503;28;20097;-87
2023/09/28 02:37:52;;;;;;;4.70;2.60;;;;;;;;;;5077119;28;20048;-87
2023/09/28 02:40:19;;;;;;;5.50;2.88;;;;;;;;;;5077010;28;20074;-87
2023/09/28 02:42:45;;;;;;;4.82;2.35;;;;;;;;;;5062369;28;20024;-87
2023/09/28 02:45:13;;;;;;;4.70;2.78;;;;;;;;;;5064237;28;20029;-88
2023/09/28 02:47:42;;;;;;;5.72;2.80;;;;;;;;;;5080230;28;20032;-88
2023/09/28 02:50:11;;;;;;;5.28;2.70;;;;;;;;;;5081747;28;20046;-88
2023/09/28 02:52:37;;;;;;;4.65;3.05;;;;;;;;;;5067131;28;20426;-88
2023/09/28 02:55:06;;;;;;;5.38;2.50;;;;;;;;;;5065694;28;20126;-88
2023/09/28 02:57:31;;;;;;;4.72;2.70;;;;;;;;;;5072431;28;20056;-88
2023/09/28 02:59:57;;;;;;;5.65;2.63;;;;;;;;;;5068015;28;20021;-88
2023/09/28 03:02:23;;;;;;;3.97;2.53;;;;;;;;;;5062700;28;20029;-88
2023/09/28 03:04:48;;;;;;;6.47;2.80;;;;;;;;;;5075460;28;20021;-88
2023/09/28 03:07:13;;;;;;;5.93;2.85;;;;;;;;;;5075240;28;20036;-88
2023/09/28 03:09:40;;;;;;;8.75;3.45;;;;;;;;;;5071815;28;20052;-88
2023/09/28 03:12:07;;;;;;;4.88;3.17;;;;;;;;;;5062699;28;20459;-88
2023/09/28 03:14:32;;;;;;;5.50;2.97;;;;;;;;;;5075195;28;20361;-88
2023/09/28 03:16:58;;;;;;;4.75;2.90;;;;;;;;;;5075343;28;20027;-88
2023/09/28 03:19:23;;;;;;;5.15;2.78;;;;;;;;;;5074933;28;20031;-88
2023/09/28 03:21:53;;;;;;;5.57;3.05;;;;;;;;;;5065311;28;20032;-88
2023/09/28 03:24:18;;;;;;;5.07;2.83;;;;;;;;;;5074653;28;20029;-88
2023/09/28 03:26:44;;;;;;;5.22;3.33;;;;;;;;;;5074323;28;20079;-88
2023/09/28 03:29:09;;;;;;;5.05;3.08;;;;;;;;;;5074223;28;20036;-88
2023/09/28 03:31:34;;;;;;;5.47;2.75;;;;;;;;;;5071721;28;20028;-88
2023/09/28 03:33:59;;;;;;;9.27;3.40;;;;;;;;;;5074518;28;20460;-88
2023/09/28 03:36:25;;;;;;;6.95;3.10;;;;;;;;;;5074548;28;20035;-87
2023/09/28 03:38:50;;;;;;;9.35;3.00;;;;;;;;;;5064072;28;20475;-88
2023/09/28 03:41:17;;;;;;;9.13;3.10;;;;;;;;;;5075494;28;20036;-88
2023/09/28 03:43:43;;;;;;;8.35;3.33;;;;;;;;;;5074887;28;20491;-88
2023/09/28 03:46:09;;;;;;;5.50;3.30;;;;;;;;;;5074901;28;20535;-89
2023/09/28 03:48:34;;;;;;;6.20;3.20;;;;;;;;;;5076162;28;20071;-88
2023/09/28 03:51:00;;;;;;;8.10;3.38;;;;;;;;;;5075060;28;20130;-88
2023/09/28 03:53:26;;;;;;;6.55;3.28;;;;;;;;;;5075089;28;20025;-88
2023/09/28 03:55:52;;;;;;;6.45;3.50;;;;;;;;;;5073343;28;20028;-88
2023/09/28 03:58:18;;;;;;;6.80;3.55;;;;;;;;;;5068615;28;20021;-88
2023/09/28 04:00:44;;;;;;;9.27;3.80;;;;;;;;;;5079083;28;20127;-88
2023/09/28 04:03:10;;;;;;;8.32;3.65;;;;;;;;;;5079141;28;20031;-88
2023/09/28 04:05:35;;;;;;;6.05;3.65;;;;;;;;;;5062084;28;20044;-88
2023/09/28 04:08:00;;;;;;;6.90;3.40;;;;;;;;;;5075330;28;20021;-88
2023/09/28 04:10:31;;;;;;;9.68;3.90;;;;;;;;;;5074030;28;20119;-88
2023/09/28 04:12:57;;;;;;;7.45;3.47;;;;;;;;;;5074083;28;20066;-88
2023/09/28 04:15:22;;;;;;;7.95;3.55;;;;;;;;;;5073496;28;20032;-89
2023/09/28 04:17:48;;;;;;;9.15;3.95;;;;;;;;;;5073436;28;20032;-88
2023/09/28 04:20:13;;;;;;;8.95;3.42;;;;;;;;;;5065726;28;20025;-88
2023/09/28 04:22:39;;;;;;;7.15;3.40;;;;;;;;;;5053914;28;20021;-88
2023/09/28 04:25:05;;;;;;;10.57;3.88;;;;;;;;;;5057373;28;20182;-88
2023/09/28 04:27:31;;;;;;;6.00;3.15;;;;;;;;;;5060824;28;20096;-88
2023/09/28 04:29:56;;;;;;;9.82;3.58;;;;;;;;;;5072505;28;20511;-89
2023/09/28 04:32:21;;;;;;;9.07;3.67;;;;;;;;;;5068089;28;20123;-88
2023/09/28 04:34:46;;;;;;;6.13;3.53;;;;;;;;;;5056651;28;20027;-89
2023/09/28 04:37:12;;;;;;;7.75;3.90;;;;;;;;;;5072818;28;20016;-88
2023/09/28 04:39:37;;;;;;;10.05;3.72;;;;;;;;;;5072480;28;20107;-88
2023/09/28 04:42:02;;;;;;;12.25;3.75;;;;;;;;;;5073450;28;20020;-88
2023/09/28 04:44:28;;;;;;;6.63;3.35;;;;;;;;;;5066742;28;20387;-88
2023/09/28 04:46:53;;;;;;;6.40;3.45;;;;;;;;;;5065678;28;20032;-88
2023/09/28 04:49:19;;;;;;;7.53;3.67;;;;;;;;;;5062151;28;20454;-88
2023/09/28 04:51:44;;;;;;;11.55;3.78;;;;;;;;;;5074750;28;20033;-88
2023/09/28 04:54:10;;;;;;;6.72;3.83;;;;;;;;;;5073239;28;20036;-88
2023/09/28 04:56:35;;;;;;;7.70;4.10;;;;;;;;;;5074100;28;20024;-88
2023/09/28 04:59:00;;;;;;;9.57;3.85;;;;;;;;;;5063251;28;20024;-88
2023/09/28 05:01:26;;;;;;;6.97;3.70;;;;;;;;;;5065076;28;20024;-89
2023/09/28 05:03:53;;;;;;;14.77;4.32;;;;;;;;;;5075980;28;20021;-88
2023/09/28 05:06:18;;;;;;;7.53;3.75;;;;;;;;;;5075220;28;20052;-88
2023/09/28 05:08:44;;;;;;;7.68;4.05;;;;;;;;;;5076861;28;20028;-88
2023/09/28 05:11:09;;;;;;;8.32;4.60;;;;;;;;;;5075718;28;20032;-88
2023/09/28 05:13:35;;;;;;;9.65;4.18;;;;;;;;;;5067147;28;20021;-88
2023/09/28 05:16:00;;;;;;;9.00;4.40;;;;;;;;;;5055671;28;20036;-88
2023/09/28 05:18:25;;;;;;;6.85;3.80;;;;;;;;;;5066487;28;20045;-88
2023/09/28 05:20:51;;;;;;;7.07;3.83;;;;;;;;;;5065007;28;20581;-88
2023/09/28 05:23:16;;;;;;;7.22;4.50;;;;;;;;;;5072633;28;20032;-88
2023/09/28 05:25:42;;;;;;;7.70;3.60;;;;;;;;;;5066790;28;20028;-88
2023/09/28 05:28:07;;;;;;;9.07;4.30;;;;;;;;;;5067080;28;20031;-88
2023/09/28 05:30:33;;;;;;;8.02;4.15;;;;;;;;;;5072577;28;20052;-87
2023/09/28 05:32:58;;;;;;;6.97;3.05;;;;;;;;;;5076328;28;20025;-87
2023/09/28 05:35:23;;;;;;;6.75;3.67;;;;;;;;;;5076112;28;20031;-88
2023/09/28 05:37:49;;;;;;;10.48;4.30;;;;;;;;;;5076150;28;20475;-87
2023/09/28 05:40:14;;;;;;;9.20;3.17;;;;;;;;;;5060991;28;20021;-88
2023/09/28 05:42:42;;;;;;;11.68;3.25;;;;;;;;;;5075631;28;20095;-87
2023/09/28 05:45:10;;;;;;;8.93;3.40;;;;;;;;;;5076027;28;20055;-87
2023/09/28 05:47:35;;;;;;;7.13;3.80;;;;;;;;;;5071706;28;20029;-87
2023/09/28 05:50:01;;;;;;;14.07;3.40;;;;;;;;;;5071176;28;20032;-87
2023/09/28 05:52:28;;;;;;;7.22;3.38;;;;;;;;;;5073900;28;20032;-86
2023/09/28 05:54:53;;;;;;;10.60;3.67;;;;;;;;;;5067542;28;20029;-85
2023/09/28 05:57:21;;;;;;;8.40;3.08;;;;;;;;;;5072831;28;20075;-86
2023/09/28 05:59:46;;;;;;;8.55;3.10;;;;;;;;;;5075748;28;20021;-86
2023/09/28 06:02:12;;;;;;;6.60;3.30;;;;;;;;;;5067551;28;20029;-86
2023/09/28 06:04:37;;;;;;;8.80;3.50;;;;;;;;;;5074618;28;20031;-87
2023/09/28 06:07:03;;;;;;;7.18;3.40;;;;;;;;;;5075254;28;20401;-87
2023/09/28 06:09:28;;;;;;;8.25;3.65;;;;;;;;;;5074933;28;20428;-86
2023/09/28 06:11:57;;;;;;;8.98;3.42;;;;;;;;;;5072555;28;20067;-86
2023/09/28 06:14:23;;;;;;;7.18;3.03;;;;;;;;;;5067617;28;20028;-86
2023/09/28 06:16:48;;;;;;;8.88;3.47;;;;;;;;;;5078382;28;20020;-86
2023/09/28 06:19:16;;;;;;;8.85;3.63;;;;;;;;;;5076404;28;20123;-86
2023/09/28 06:21:42;;;;;;;8.10;3.30;;;;;;;;;;5069071;28;20493;-85
2023/09/28 06:24:07;;;;;;;6.93;3.83;;;;;;;;;;5069738;28;20024;-86
2023/09/28 06:26:33;;;;;;;14.80;3.25;;;;;;;;;;5067363;28;20092;-85
2023/09/28 06:28:59;;;;;;;6.05;3.40;;;;;;;;;;5067471;28;20020;-86
2023/09/28 06:31:24;;;;;;;13.98;4.30;;;;;;;;;;5071977;28;20040;-85
2023/09/28 06:33:49;;;;;;;6.55;3.63;;;;;;;;;;5065232;28;20115;-85
2023/09/28 06:36:15;;;;;;;8.45;4.47;;;;;;;;;;5072183;28;20084;-87
2023/09/28 06:38:41;;;;;;;7.95;4.13;;;;;;;;;;5074356;28;20031;-87
2023/09/28 06:41:06;;;;;;;13.95;4.07;;;;;;;;;;5074873;28;20021;-86
2023/09/28 06:43:32;;;;;;;8.18;4.28;;;;;;;;;;5074863;28;20021;-86
2023/09/28 06:46:00;;;;;;;9.48;3.63;;;;;;;;;;5074742;28;20029;-85
2023/09/28 06:48:28;;;;;;;9.95;4.57;;;;;;;;;;5064193;28;20546;-86
2023/09/28 06:50:57;;;;;;;13.77;4.57;;;;;;;;;;5057743;28;20474;-87
2023/09/28 06:53:23;;;;;;;10.80;4.13;;;;;;;;;;5065401;28;20103;-86
2023/09/28 06:55:48;;;;;;;9.23;3.53;;;;;;;;;;5074739;28;20111;-86
2023/09/28 06:58:14;;;;;;;9.73;3.65;;;;;;;;;;5075953;28;20016;-86
2023/09/28 07:00:43;;;;;;;8.38;3.42;;;;;;;;;;5069652;28;20429;-86
2023/09/28 07:03:11;;;;;;;12.10;3.47;;;;;;;;;;5066688;28;20112;-86
2023/09/28 07:05:36;;;;;;;14.85;3.63;;;;;;;;;;5069816;28;20047;-86
2023/09/28 07:08:05;;;;;;;11.00;4.07;;;;;;;;;;5060224;28;20024;-86
2023/09/28 07:10:34;;;;;;;15.23;3.30;;;;;;;;;;5073816;28;20038;-87
2023/09/28 07:13:04;;;;;;;14.88;2.88;;;;;;;;;;5073958;28;20112;-86
2023/09/28 07:15:29;;;;;;;7.70;2.83;;;;;;;;;;5064725;28;20027;-86
2023/09/28 07:17:58;;;;;;;10.95;2.53;;;;;;;;;;5068304;28;20103;-86
2023/09/28 07:20:23;;;;;;;12.77;2.65;;;;;;;;;;5072376;28;20103;-86
2023/09/28 07:22:49;;;;;;;12.43;2.42;;;;;;;;;;5065253;28;20678;-87
2023/09/28 07:25:14;;;;;;;9.27;1.88;;;;;;;;;;5067225;28;20652;-86
2023/09/28 07:27:45;;;;;;;12.15;2.55;;;;;;;;;;5069919;28;20120;-86
2023/09/28 07:30:11;;;;;;;9.07;2.23;;;;;;;;;;5060974;28;20033;-87
2023/09/28 07:32:37;;;;;;;20.23;3.45;;;;;;;;;;5077911;28;20051;-87
2023/09/28 07:35:03;;;;;;;9.05;1.80;;;;;;;;;;5075884;28;20036;-87
2023/09/28 07:37:28;;;;;;;16.52;3.08;;;;;;;;;;5071045;28;20008;-87
2023/09/28 07:39:54;;;;;;;18.10;2.97;;;;;;;;;;5077219;28;20432;-87
2023/09/28 07:42:19;;;;;;;17.27;2.53;;;;;;;;;;5073872;28;20012;-87
2023/09/28 07:44:45;;;;;;;29.35;2.28;;;;;;;;;;5065022;28;20044;-87
2023/09/28 07:47:10;;;;;;;14.20;2.13;;;;;;;;;;5067664;28;20028;-88
2023/09/28 07:49:36;;;;;;;21.23;2.75;;;;;;;;;;5074118;28;20017;-88
2023/09/28 07:52:02;;;;;;;19.23;2.35;;;;;;;;;;5072090;28;20055;-86
2023/09/28 07:54:30;;;;;;;10.15;1.95;;;;;;;;;;5070442;28;20021;-87
2023/09/28 07:56:56;;;;;;;14.38;2.42;;;;;;;;;;5070826;28;20024;-87
2023/09/28 07:59:24;;;;;;;13.65;2.33;;;;;;;;;;5070899;28;20013;-87
2023/09/28 08:01:54;;;;;;;9.90;2.25;;;;;;;;;;5063092;28;20058;-87
2023/09/28 08:04:21;;;;;;;10.05;1.92;;;;;;;;;;5070475;28;20154;-87
2023/09/28 08:06:47;;;;;;;17.73;1.83;;;;;;;;;;5066531;28;20099;-87
2023/09/28 08:09:14;;;;;;;16.92;2.33;;;;;;;;;;5071796;28;20066;-87
2023/09/28 08:11:50;;;;;;;12.07;2.80;;;;;;;;;;5106237;27;20899;-87
2023/09/28 08:14:16;;;;;;;27.65;2.83;;;;;;;;;;5085271;28;20491;-87
2023/09/28 08:16:44;;;;;;;13.57;1.60;;;;;;;;;;5072001;28;20020;-88
2023/09/28 08:19:10;;;;;;;15.88;2.30;;;;;;;;;;5072704;28;20073;-88
2023/09/28 08:21:38;;;;;;;21.92;2.38;;;;;;;;;;5072142;28;20025;-88
2023/09/28 08:24:10;;;;;;;13.98;2.17;;;;;;;;;;5072396;28;20657;-86
2023/09/28 08:26:36;;;;;;;27.08;2.55;;;;;;;;;;5070907;28;20466;-86
2023/09/28 08:29:02;;;;;;;21.50;2.38;;;;;;;;;;5065630;28;20025;-87
2023/09/28 08:31:27;;;;;;;22.85;3.03;;;;;;;;;;5074653;28;20655;-86
2023/09/28 08:33:52;;;;;;;23.45;2.67;;;;;;;;;;5074725;28;20021;-86
2023/09/28 08:36:18;;;;;;;22.88;2.47;;;;;;;;;;5068502;28;20043;-86
2023/09/28 08:38:44;;;;;;;22.75;2.30;;;;;;;;;;5076001;28;20028;-86
2023/09/28 08:41:10;;;;;;;20.38;2.05;;;;;;;;;;5075509;28;20070;-86
2023/09/28 08:43:43;;;;;;;13.90;2.38;;;;;;;;;;5076157;28;20036;-86
2023/09/28 08:46:14;;;;;;;15.23;1.65;;;;;;;;;;5071705;28;20024;-87
2023/09/28 08:48:45;;;;;;;17.88;2.03;;;;;;;;;;5065106;28;20082;-86
2023/09/28 08:51:15;;;;;;;20.73;2.28;;;;;;;;;;5073238;28;20107;-87
2023/09/28 08:53:40;;;;;;;24.48;2.13;;;;;;;;;;5071887;28;20020;-87
2023/09/28 08:56:09;;;;;;;15.95;1.65;;;;;;;;;;5068936;28;20057;-85
2023/09/28 08:58:35;;;;;;;24.67;2.00;;;;;;;;;;5059566;28;20020;-81
2023/09/28 09:01:00;;;;;;;25.77;2.40;;;;;;;;;;5075145;28;20488;-82
2023/09/28 09:03:26;;;;;;;17.52;2.13;;;;;;;;;;5071621;28;20020;-82
2023/09/28 09:05:52;;;;;;;15.02;3.13;;;;;;;;;;5071847;28;20103;-81
2023/09/28 09:08:19;;;;;;;23.08;2.35;;;;;;;;;;5102804;28;20099;-82
2023/09/28 09:10:46;;;;;;;19.30;1.98;;;;;;;;;;5066216;28;20697;-82
2023/09/28 09:13:15;;;;;;;18.13;1.98;;;;;;;;;;5069562;28;20097;-82
2023/09/28 09:15:44;;;;;;;17.95;2.03;;;;;;;;;;5069025;28;20031;-81
2023/09/28 09:18:15;;;;;;;24.40;2.05;;;;;;;;;;5070138;28;20377;-81
2023/09/28 09:20:41;;;;;;;18.10;2.25;;;;;;;;;;5088551;28;20020;-81
2023/09/28 09:23:13;;;;;;;11.90;1.35;;;;;;;;;;5050813;28;20032;-82
2023/09/28 09:25:47;;;;;;;15.05;2.03;;;;;;;;;;5052581;28;20021;-83
2023/09/28 09:28:25;;;;;;;22.88;2.65;;;;;;;;;;5053759;28;20025;-84
2023/09/28 09:30:52;;;;;;;22.33;2.13;;;;;;;;;;5044344;28;20119;-84
2023/09/28 09:33:18;;;;;;;18.67;1.83;;;;;;;;;;5072968;28;20028;-84
2023/09/28 09:35:43;;;;;;;16.48;1.95;;;;;;;;;;5058443;28;20024;-84
2023/09/28 09:38:09;;;;;;;16.33;2.25;;;;;;;;;;5043551;28;20090;-84
2023/09/28 09:40:35;;;;;;;17.70;2.97;;;;;;;;;;5054701;28;20024;-84
2023/09/28 09:43:07;;;;;;;21.92;2.58;;;;;;;;;;5059126;28;20020;-83
2023/09/28 09:45:32;;;;;;;;;;;;;;;;;;5076046;28;20017;-84
2023/09/28 09:47:58;;;;;;;12.57;1.45;;;;;;;;;;5058866;28;19912;-83
2023/09/28 09:50:24;;;;;;;26.08;2.10;;;;;;;;;;5058407;28;20116;-84
2023/09/28 09:52:50;;;;;;;18.80;2.28;;;;;;;;;;5058278;28;20445;-84
2023/09/28 09:55:15;;;;;;;21.70;2.35;;;;;;;;;;5059459;28;20052;-84
2023/09/28 09:57:47;;;;;;;19.15;1.98;;;;;;;;;;5077735;28;20070;-84
2023/09/28 10:00:15;;;;;;;17.05;2.08;;;;;;;;;;5058743;28;20053;-84
2023/09/28 10:02:42;;;;;;;24.92;2.78;;;;;;;;;;5057722;28;20081;-84
2023/09/28 10:05:09;;;;;;;22.65;2.25;;;;;;;;;;5076217;28;20032;-83
2023/09/28 10:07:36;;;;;;;12.77;1.67;;;;;;;;;;5057515;28;20391;-83
2023/09/28 10:10:02;;;;;;;16.23;2.53;;;;;;;;;;5057435;28;20028;-83
2023/09/28 10:12:27;;;;;;;20.63;1.30;;;;;;;;;;5065389;28;20039;-84
2023/09/28 10:14:56;;;;;;;19.77;1.63;;;;;;;;;;5057443;28;20369;-84
2023/09/28 10:17:22;;;;;;;14.82;1.98;;;;;;;;;;5074543;28;20021;-84
2023/09/28 10:19:47;;;;;;;13.13;1.52;;;;;;;;;;5056953;28;20020;-84
2023/09/28 10:22:13;;;;;;;13.95;1.48;;;;;;;;;;5080150;28;20020;-84
2023/09/28 10:24:38;;;;;;;16.92;1.60;;;;;;;;;;5056846;28;20037;-84
2023/09/28 10:27:10;;;;;;;13.13;1.90;;;;;;;;;;5056694;28;20024;-84
2023/09/28 10:29:36;;;;;;;13.20;1.30;;;;;;;;;;5056816;28;20055;-84
2023/09/28 10:32:06;;;;;;;13.20;2.00;;;;;;;;;;5074514;28;20012;-83
2023/09/28 10:34:31;;;;;;;14.25;1.75;;;;;;;;;;5055264;28;20024;-83
2023/09/28 10:37:07;;;;;;;14.63;1.52;;;;;;;;;;5056196;28;20004;-83
2023/09/28 10:39:33;;;;;;;14.52;1.67;;;;;;;;;;5082809;28;20017;-83
2023/09/28 10:42:06;;;;;;;13.57;2.13;;;;;;;;;;5056352;28;20086;-84
2023/09/28 10:44:31;;;;;;;15.10;2.63;;;;;;;;;;5052197;28;20024;-84
2023/09/28 10:46:57;;;;;;;9.65;1.50;;;;;;;;;;5055847;28;20043;-83
2023/09/28 10:49:23;;;;;;;14.60;2.88;;;;;;;;;;5056307;28;20013;-84
2023/09/28 10:51:49;;;;;;;13.15;1.80;;;;;;;;;;5056569;28;20024;-84
2023/09/28 10:54:14;;;;;;;15.40;1.92;;;;;;;;;;5055713;28;20065;-84
2023/09/28 10:56:40;;;;;;;11.45;2.60;;;;;;;;;;5056603;28;20017;-84
2023/09/28 10:59:06;;;;;;;10.30;1.48;;;;;;;;;;5056377;28;20021;-84
2023/09/28 11:01:31;;;;;;;12.52;1.75;;;;;;;;;;5056663;28;20016;-83
2023/09/28 11:03:56;;;;;;;16.75;2.03;;;;;;;;;;5056926;28;20020;-84
2023/09/28 11:06:23;;;;;;;11.15;1.63;;;;;;;;;;5056627;28;20039;-84
2023/09/28 11:08:51;;;;;;;10.68;2.17;;;;;;;;;;5056433;28;20020;-83
2023/09/28 11:11:17;;;;;;;12.50;2.00;;;;;;;;;;5071515;28;20542;-83
2023/09/28 11:13:43;;;;;;;8.43;1.77;;;;;;;;;;5071805;28;20348;-83
2023/09/28 11:16:09;;;;;;;11.38;1.77;;;;;;;;;;5064378;28;20028;-83
2023/09/28 11:18:36;;;;;;;12.65;1.55;;;;;;;;;;5056017;28;20037;-84
2023/09/28 11:21:03;;;;;;;13.43;1.58;;;;;;;;;;5059691;28;20028;-84
2023/09/28 11:23:28;;;;;;;11.93;1.75;;;;;;;;;;5056768;28;20189;-85
2023/09/28 11:25:54;;;;;;;17.25;1.52;;;;;;;;;;5052623;28;20117;-84
2023/09/28 11:28:19;;;;;;;14.93;1.42;;;;;;;;;;5050091;28;20021;-84
2023/09/28 11:30:45;;;;;;;6.30;0.98;;;;;;;;;;5053919;28;20031;-85
2023/09/28 11:33:10;;;;;;;13.13;1.80;;;;;;;;;;5056199;28;20027;-84
2023/09/28 11:35:38;;;;;;;13.18;1.60;;;;;;;;;;5055387;28;20025;-84
2023/09/28 11:38:09;;;;;;;13.60;1.75;;;;;;;;;;5045969;28;20105;-84
2023/09/28 11:40:44;;;;;;;19.80;1.75;;;;;;;;;;5052297;28;20070;-84
2023/09/28 11:43:42;;;;;;;14.32;1.90;;;;;;;;;;5054961;28;20029;-84
2023/09/28 11:46:07;;;;;;;14.15;1.98;;;;;;;;;;5073855;28;20039;-84
2023/09/28 11:48:32;;;;;;;11.30;2.00;;;;;;;;;;5073449;28;20020;-84
2023/09/28 11:50:58;;;;;;;16.25;2.50;;;;;;;;;;5088391;28;20763;-84
2023/09/28 11:53:23;;;;;;;13.32;1.88;;;;;;;;;;5056113;28;20016;-83
2023/09/28 11:55:49;;;;;;;10.27;1.38;;;;;;;;;;5053637;28;20547;-83
2023/09/28 11:58:20;;;;;;;13.07;1.73;;;;;;;;;;5072344;28;20017;-83
2023/09/28 12:00:47;;;;;;;9.30;1.55;;;;;;;;;;5054966;28;20704;-82
2023/09/28 12:03:13;;;;;;;13.02;1.80;;;;;;;;;;5053849;28;20083;-83
2023/09/28 12:05:41;;;;;;;11.77;1.80;;;;;;;;;;5072646;28;20021;-83
2023/09/28 12:08:07;;;;;;;9.20;1.40;;;;;;;;;;5054400;28;20332;-83
2023/09/28 12:10:33;;;;;;;8.80;1.38;;;;;;;;;;5072617;28;20074;-83
2023/09/28 12:12:58;;;;;;;16.33;2.08;;;;;;;;;;5054845;28;20021;-83
2023/09/28 12:15:24;;;;;;;13.07;1.48;;;;;;;;;;5049244;28;20017;-82
2023/09/28 12:17:49;;;;;;;11.90;2.42;;;;;;;;;;5056329;28;20367;-83
2023/09/28 12:20:14;;;;;;;15.57;1.70;;;;;;;;;;5068420;28;20025;-83
2023/09/28 12:22:43;;;;;;;13.38;1.80;;;;;;;;;;5054419;28;20046;-83
2023/09/28 12:25:10;;;;;;;10.93;1.83;;;;;;;;;;5073194;28;20440;-83
2023/09/28 12:27:35;;;;;;;12.20;2.65;;;;;;;;;;5053383;28;20059;-82
2023/09/28 12:30:02;;;;;;;5.68;1.13;;;;;;;;;;5054383;28;20044;-82
2023/09/28 12:32:30;;;;;;;13.05;2.10;;;;;;;;;;5055031;28;20015;-82
2023/09/28 12:34:56;;;;;;;9.02;1.80;;;;;;;;;;5050203;28;20136;-82
2023/09/28 12:37:21;;;;;;;15.68;2.03;;;;;;;;;;5087058;28;20013;-83
2023/09/28 12:39:48;;;;;;;11.52;1.73;;;;;;;;;;5057224;28;20025;-83
2023/09/28 12:42:15;;;;;;;12.73;1.83;;;;;;;;;;5053604;28;20024;-82
2023/09/28 12:44:40;;;;;;;6.72;1.70;;;;;;;;;;5053399;28;20361;-83
2023/09/28 12:47:06;;;;;;;10.73;1.90;;;;;;;;;;5054013;28;20112;-83
2023/09/28 12:49:31;;;;;;;11.30;2.00;;;;;;;;;;5071896;28;20082;-83
2023/09/28 12:51:56;;;;;;;9.57;1.63;;;;;;;;;;5054272;28;20103;-84
2023/09/28 12:54:22;;;;;;;6.22;1.20;;;;;;;;;;5071778;28;20016;-81
2023/09/28 12:56:47;;;;;;;7.47;1.67;;;;;;;;;;5054172;28;20216;-83
2023/09/28 12:59:13;;;;;;;8.85;1.77;;;;;;;;;;5056703;28;20861;-83
2023/09/28 13:01:39;;;;;;;7.50;2.03;;;;;;;;;;5074418;28;20051;-82
2023/09/28 13:04:05;;;;;;;12.75;1.55;;;;;;;;;;5057186;28;20025;-83
2023/09/28 13:06:31;;;;;;;8.57;1.88;;;;;;;;;;5057426;28;20382;-83
2023/09/28 13:09:00;;;;;;;10.77;1.83;;;;;;;;;;5044894;28;20021;-83
2023/09/28 13:11:26;;;;;;;9.32;2.10;;;;;;;;;;5055224;28;20529;-82
2023/09/28 13:13:52;;;;;;;9.07;2.20;;;;;;;;;;5057092;28;20027;-83
2023/09/28 13:16:21;;;;;;;15.35;2.33;;;;;;;;;;5057140;28;20103;-82
2023/09/28 13:18:46;;;;;;;10.27;1.80;;;;;;;;;;5055058;28;20114;-82
2023/09/28 13:21:12;;;;;;;8.50;1.73;;;;;;;;;;5056545;28;20087;-82
2023/09/28 13:23:37;;;;;;;12.60;1.40;;;;;;;;;;5047754;28;20051;-82
2023/09/28 13:26:04;;;;;;;6.68;1.38;;;;;;;;;;5054823;28;20367;-83
2023/09/28 13:28:30;;;;;;;11.20;1.63;;;;;;;;;;5046805;28;20032;-82
2023/09/28 13:30:57;;;;;;;11.65;1.88;;;;;;;;;;5057428;28;20082;-82
2023/09/28 13:33:23;;;;;;;7.45;0.93;;;;;;;;;;5090783;28;20036;-82
2023/09/28 13:35:49;;;;;;;13.00;1.92;;;;;;;;;;5057956;28;20020;-83
2023/09/28 13:38:15;;;;;;;13.02;1.85;;;;;;;;;;5074440;28;20008;-83
2023/09/28 13:40:40;;;;;;;13.32;2.08;;;;;;;;;;5055913;28;20031;-82
2023/09/28 13:43:05;;;;;;;9.35;1.75;;;;;;;;;;5056703;28;20031;-83
2023/09/28 13:45:31;;;;;;;11.45;1.85;;;;;;;;;;5055647;28;20050;-83
2023/09/28 13:47:58;;;;;;;5.78;1.17;;;;;;;;;;5056163;28;20105;-82
2023/09/28 13:50:27;;;;;;;9.07;1.38;;;;;;;;;;5054764;28;20229;-83
2023/09/28 13:52:53;;;;;;;8.70;1.40;;;;;;;;;;5055365;28;20020;-83
2023/09/28 13:55:19;;;;;;;5.10;1.30;;;;;;;;;;5055588;28;20020;-83
2023/09/28 13:57:47;;;;;;;7.18;1.33;;;;;;;;;;5055039;28;20090;-82
2023/09/28 14:00:29;;;;;;;13.95;1.80;;;;;;;;;;5053532;28;20054;-82
2023/09/28 14:03:00;;;;;;;8.00;1.40;;;;;;;;;;5052786;28;20410;-82
2023/09/28 14:05:25;;;;;;;13.18;1.65;;;;;;;;;;5077322;28;20426;-82
2023/09/28 14:07:51;;;;;;;8.07;1.33;;;;;;;;;;5055505;28;20021;-83
2023/09/28 14:10:19;;;;;;;11.43;1.77;;;;;;;;;;5049666;28;20111;-83
2023/09/28 14:12:45;;;;;;;8.02;1.50;;;;;;;;;;5079045;28;20037;-83
2023/09/28 14:15:11;;;;;;;5.38;1.30;;;;;;;;;;5070778;28;20028;-82
2023/09/28 14:17:38;;;;;;;11.07;1.92;;;;;;;;;;5055979;28;20486;-82
2023/09/28 14:20:10;;;;;;;6.97;1.40;;;;;;;;;;5089545;28;20021;-83
2023/09/28 14:22:35;;;;;;;7.90;1.55;;;;;;;;;;5055678;28;20036;-83
2023/09/28 14:25:01;;;;;;;10.88;1.70;;;;;;;;;;5055875;28;20029;-82
2023/09/28 14:27:27;;;;;;;14.63;2.22;;;;;;;;;;5055582;28;20020;-82
2023/09/28 14:29:52;;;;;;;10.93;1.92;;;;;;;;;;5055849;28;20047;-82
2023/09/28 14:32:18;;;;;;;10.07;1.83;;;;;;;;;;5056003;28;20046;-82
2023/09/28 14:34:43;;;;;;;7.20;1.60;;;;;;;;;;5055654;28;20027;-82
2023/09/28 14:37:09;;;;;;;5.88;1.83;;;;;;;;;;5055524;28;20024;-83